Time;durP1;ratioP1;P1;durP2;ratioP2;P2;SDS_P1;SDS_P2;PMS_P1;PMS_P2;Temp;Humidity;BMP_temperature;BMP_pressure;BME280_temperature;BME280_humidity;BME280_pressure;Samples;Min_cycle;Max_cycle;Signal;HPM_P1;HPM_P2
2023/06/23 00:00:11;;;;;;;11.05;7.57;;;19.90;99.90;;;;;;4130313;28;20026;-61
2023/06/23 00:02:12;;;;;;;16.58;8.98;;;19.90;99.90;;;;;;4131345;28;20097;-62
2023/06/23 00:04:13;;;;;;;12.88;8.05;;;19.80;99.90;;;;;;4130364;28;20439;-61
2023/06/23 00:06:15;;;;;;;11.82;7.47;;;19.80;99.90;;;;;;4131385;28;20038;-62
2023/06/23 00:08:16;;;;;;;17.90;7.93;;;19.80;99.90;;;;;;4129910;28;20043;-62
2023/06/23 00:10:17;;;;;;;16.67;7.60;;;19.80;99.90;;;;;;4130865;28;20089;-62
2023/06/23 00:12:19;;;;;;;16.15;8.40;;;19.90;99.90;;;;;;4130483;28;20046;-61
2023/06/23 00:14:21;;;;;;;15.80;7.38;;;19.90;99.90;;;;;;4129946;28;20559;-60
2023/06/23 00:16:22;;;;;;;16.05;8.63;;;19.90;99.90;;;;;;4130886;28;20069;-62
2023/06/23 00:18:24;;;;;;;11.23;7.22;;;19.90;99.90;;;;;;4130169;28;20096;-61
2023/06/23 00:20:25;;;;;;;9.38;6.50;;;19.90;99.90;;;;;;4130613;28;20431;-60
2023/06/23 00:22:27;;;;;;;14.52;7.63;;;20.00;99.90;;;;;;4128587;28;20177;-61
2023/06/23 00:24:30;;;;;;;19.27;7.38;;;20.00;99.90;;;;;;4130388;28;20085;-62
2023/06/23 00:26:33;;;;;;;13.23;7.78;;;20.00;99.90;;;;;;4130182;28;20097;-62
2023/06/23 00:28:34;;;;;;;13.55;7.32;;;20.00;99.90;;;;;;4130327;28;20062;-62
2023/06/23 00:30:36;;;;;;;15.18;8.43;;;20.00;99.90;;;;;;4129894;28;20120;-62
2023/06/23 00:32:41;;;;;;;14.63;8.15;;;20.00;99.90;;;;;;4131451;28;20022;-61
2023/06/23 00:34:42;;;;;;;12.98;7.45;;;19.90;99.90;;;;;;4129587;28;20023;-61
2023/06/23 00:36:43;;;;;;;13.93;8.05;;;20.00;99.90;;;;;;4130945;28;20038;-63
2023/06/23 00:38:45;;;;;;;12.23;7.13;;;20.00;99.90;;;;;;4129829;28;20034;-62
2023/06/23 00:40:46;;;;;;;14.38;8.07;;;20.00;99.90;;;;;;4130809;28;20096;-62
2023/06/23 00:42:52;;;;;;;13.23;7.40;;;20.00;99.90;;;;;;4129557;28;20093;-61
2023/06/23 00:44:53;;;;;;;13.65;7.95;;;20.00;99.90;;;;;;4130027;28;20537;-61
2023/06/23 00:46:55;;;;;;;15.10;7.35;;;20.00;99.90;;;;;;4129626;28;20476;-61
2023/06/23 00:48:56;;;;;;;11.85;6.72;;;20.00;99.90;;;;;;4130138;28;20050;-61
2023/06/23 00:50:57;;;;;;;13.10;7.43;;;19.90;99.90;;;;;;4130367;28;20412;-62
2023/06/23 00:52:59;;;;;;;13.38;7.03;;;20.00;99.90;;;;;;4129217;28;20042;-61
2023/06/23 00:55:03;;;;;;;19.52;7.47;;;20.00;99.90;;;;;;4130536;28;20046;-61
2023/06/23 00:57:05;;;;;;;16.75;7.97;;;19.90;99.90;;;;;;4129387;28;20038;-62
2023/06/23 00:59:06;;;;;;;10.65;6.75;;;19.90;99.90;;;;;;4130532;28;20422;-62
2023/06/23 01:01:10;;;;;;;10.82;6.78;;;19.90;99.90;;;;;;4129184;28;20084;-62
2023/06/23 01:03:12;;;;;;;13.32;7.28;;;19.80;99.90;;;;;;4130676;28;20101;-61
2023/06/23 01:05:13;;;;;;;8.52;6.25;;;19.80;99.90;;;;;;4129196;28;20554;-61
2023/06/23 01:07:22;;;;;;;11.77;6.47;;;19.70;99.90;;;;;;4129883;28;20100;-62
2023/06/23 01:09:47;;;;;;;14.88;6.93;;;19.70;99.90;;;;;;4129388;28;20368;-62
2023/06/23 01:12:18;;;;;;;10.75;6.72;;;19.60;99.90;;;;;;4129371;28;20062;-62
2023/06/23 01:14:29;;;;;;;11.75;6.22;;;19.50;99.90;;;;;;4128125;28;20046;-61
2023/06/23 01:16:32;;;;;;;14.60;6.78;;;19.50;99.90;;;;;;4130497;28;20399;-62
2023/06/23 01:18:50;;;;;;;12.73;7.15;;;19.40;99.90;;;;;;4129237;28;20030;-62
2023/06/23 01:20:55;;;;;;;11.63;6.90;;;19.40;99.90;;;;;;4130319;28;20073;-62
2023/06/23 01:23:20;;;;;;;9.43;6.63;;;19.30;99.90;;;;;;4128429;28;20046;-61
2023/06/23 01:25:33;;;;;;;10.35;6.38;;;19.30;99.90;;;;;;4125685;28;20046;-62
2023/06/23 01:27:59;;;;;;;11.93;6.47;;;19.30;99.90;;;;;;4128504;28;20038;-62
2023/06/23 01:30:04;;;;;;;13.00;5.75;;;19.30;99.90;;;;;;4113359;28;20085;-62
2023/06/23 01:32:16;;;;;;;11.27;7.55;;;19.40;99.90;;;;;;4113232;28;20066;-61
2023/06/23 01:34:24;;;;;;;12.57;6.15;;;19.40;99.90;;;;;;4112802;28;20086;-61
2023/06/23 01:36:42;;;;;;;11.43;7.15;;;19.40;99.90;;;;;;4121452;28;20089;-61
2023/06/23 01:38:49;;;;;;;10.65;6.38;;;19.40;99.90;;;;;;4143453;28;20081;-61
2023/06/23 01:40:54;;;;;;;13.65;7.53;;;19.40;99.90;;;;;;4128834;28;20426;-61
2023/06/23 01:42:58;;;;;;;15.80;7.88;;;19.30;99.90;;;;;;4129435;28;20108;-61
2023/06/23 01:45:02;;;;;;;11.52;7.75;;;19.30;99.90;;;;;;4129064;28;20085;-62
2023/06/23 01:47:10;;;;;;;13.30;8.75;;;19.20;99.90;;;;;;4128663;28;20038;-62
2023/06/23 01:49:21;;;;;;;11.43;8.07;;;19.10;99.90;;;;;;4128220;28;20046;-63
2023/06/23 01:51:26;;;;;;;14.63;8.27;;;19.00;99.90;;;;;;4129372;28;20022;-64
2023/06/23 01:53:30;;;;;;;13.75;9.15;;;18.90;99.90;;;;;;4128531;28;20120;-62
2023/06/23 01:55:33;;;;;;;15.27;9.18;;;18.80;99.90;;;;;;4128022;28;20566;-64
2023/06/23 01:57:37;;;;;;;10.25;8.27;;;18.80;99.90;;;;;;4127955;28;20042;-62
2023/06/23 01:59:40;;;;;;;12.95;9.75;;;18.70;99.90;;;;;;4129681;28;20430;-62
2023/06/23 02:01:45;;;;;;;12.93;9.13;;;18.60;99.90;;;;;;4126244;28;20054;-64
2023/06/23 02:03:48;;;;;;;14.32;7.93;;;18.60;99.90;;;;;;4130014;28;20084;-65
2023/06/23 02:05:51;;;;;;;15.70;7.85;;;18.50;99.90;;;;;;4127805;28;20172;-62
2023/06/23 02:07:55;;;;;;;13.50;8.05;;;18.30;99.90;;;;;;4129575;28;20450;-62
2023/06/23 02:09:57;;;;;;;15.35;8.00;;;18.30;99.90;;;;;;4142833;28;20053;-62
2023/06/23 02:11:59;;;;;;;15.52;9.48;;;18.20;99.90;;;;;;4129194;28;20447;-62
2023/06/23 02:14:01;;;;;;;13.63;8.13;;;18.20;99.90;;;;;;4127544;28;20146;-62
2023/06/23 02:16:04;;;;;;;12.38;8.70;;;18.30;99.90;;;;;;4127704;28;20085;-61
2023/06/23 02:18:07;;;;;;;17.73;8.27;;;18.30;99.90;;;;;;4128112;28;20361;-63
2023/06/23 02:20:15;;;;;;;10.45;7.32;;;18.40;99.90;;;;;;4128393;28;20034;-62
2023/06/23 02:22:20;;;;;;;11.23;7.43;;;18.40;99.90;;;;;;4127446;28;20046;-61
2023/06/23 02:24:21;;;;;;;13.20;8.43;;;18.40;99.90;;;;;;4128919;28;20483;-63
2023/06/23 02:26:25;;;;;;;10.57;7.32;;;18.50;99.90;;;;;;4127652;28;20108;-63
2023/06/23 02:28:27;;;;;;;13.07;7.95;;;18.50;99.90;;;;;;4127068;28;20050;-63
2023/06/23 02:30:29;;;;;;;14.90;7.90;;;18.50;99.90;;;;;;4127924;28;20054;-62
2023/06/23 02:32:31;;;;;;;10.18;7.47;;;18.50;99.90;;;;;;4127641;28;20487;-62
2023/06/23 02:34:33;;;;;;;13.27;7.70;;;18.50;99.90;;;;;;4128716;28;20050;-62
2023/06/23 02:37:02;;;;;;;13.48;7.85;;;18.60;99.90;;;;;;4127477;28;20030;-62
2023/06/23 02:39:06;;;;;;;16.97;7.73;;;18.60;99.90;;;;;;4127765;28;20067;-62
2023/06/23 02:41:09;;;;;;;13.43;7.75;;;18.60;99.90;;;;;;4127856;28;20034;-62
2023/06/23 02:43:27;;;;;;;12.98;7.50;;;18.60;99.90;;;;;;4128523;28;20101;-63
2023/06/23 02:45:37;;;;;;;13.63;7.68;;;18.60;99.90;;;;;;4127356;28;20058;-62
2023/06/23 02:47:41;;;;;;;11.43;7.43;;;18.60;99.90;;;;;;4128569;28;20447;-63
2023/06/23 02:49:45;;;;;;;16.73;7.80;;;18.50;99.90;;;;;;4127586;28;20549;-63
2023/06/23 02:51:47;;;;;;;13.10;8.15;;;18.50;99.90;;;;;;4128690;28;20093;-62
2023/06/23 02:53:56;;;;;;;10.70;7.55;;;18.60;99.90;;;;;;4126940;28;20109;-62
2023/06/23 02:56:07;;;;;;;13.10;7.93;;;18.60;99.90;;;;;;4128665;28;20084;-62
2023/06/23 02:58:11;;;;;;;11.88;7.07;;;18.60;99.90;;;;;;4127188;28;20042;-62
2023/06/23 03:00:17;;;;;;;11.15;7.35;;;18.60;99.90;;;;;;4128962;28;20434;-62
2023/06/23 03:02:22;;;;;;;14.90;8.65;;;18.70;99.90;;;;;;4126987;28;20096;-61
2023/06/23 03:04:23;;;;;;;15.35;8.63;;;18.90;99.90;;;;;;4143238;28;20116;-62
2023/06/23 03:06:24;;;;;;;13.02;7.85;;;18.90;99.90;;;;;;4127452;28;20462;-62
2023/06/23 03:08:25;;;;;;;19.13;8.15;;;19.10;99.90;;;;;;4128392;28;20454;-62
2023/06/23 03:10:28;;;;;;;10.00;7.95;;;19.20;99.90;;;;;;4127293;28;20116;-62
2023/06/23 03:12:29;;;;;;;11.57;8.05;;;19.30;99.90;;;;;;4128503;28;20093;-62
2023/06/23 03:14:30;;;;;;;13.25;7.90;;;19.30;99.90;;;;;;4127541;28;20026;-61
2023/06/23 03:16:54;;;;;;;15.20;7.80;;;19.40;99.90;;;;;;4128432;28;20144;-59
2023/06/23 03:19:11;;;;;;;16.98;8.05;;;19.50;99.90;;;;;;4126847;28;20557;-66
2023/06/23 03:21:14;;;;;;;20.33;8.27;;;19.50;99.90;;;;;;4128252;28;20026;-62
2023/06/23 03:23:16;;;;;;;15.07;7.55;;;19.60;99.90;;;;;;4127362;28;20073;-61
2023/06/23 03:25:22;;;;;;;12.25;7.95;;;19.70;99.90;;;;;;4128463;28;20435;-62
2023/06/23 03:27:28;;;;;;;11.43;7.97;;;19.80;99.90;;;;;;4126982;28;20769;-62
2023/06/23 03:29:31;;;;;;;18.10;9.00;;;20.10;99.90;;;;;;4127842;28;20120;-62
2023/06/23 03:31:37;;;;;;;15.82;8.05;;;20.10;99.90;;;;;;4125556;28;20107;-62
2023/06/23 03:33:43;;;;;;;15.88;7.07;;;20.20;99.90;;;;;;4122744;28;20050;-62
2023/06/23 03:35:46;;;;;;;11.82;7.57;;;20.30;99.90;;;;;;4127522;28;20038;-62
2023/06/23 03:37:50;;;;;;;14.18;8.23;;;20.60;99.90;;;;;;4127136;28;20046;-62
2023/06/23 03:40:00;;;;;;;13.10;9.68;;;20.80;99.90;;;;;;4127886;28;20097;-62
2023/06/23 03:42:03;;;;;;;20.05;8.60;;;21.00;99.90;;;;;;4126832;28;20063;-64
2023/06/23 03:44:26;;;;;;;19.55;9.68;;;21.20;99.90;;;;;;4127660;28;20522;-61
2023/06/23 03:46:50;;;;;;;16.25;8.90;;;21.30;99.90;;;;;;4127872;28;20093;-62
2023/06/23 03:48:56;;;;;;;18.90;11.35;;;21.30;99.90;;;;;;4116365;28;20042;-63
2023/06/23 03:51:00;;;;;;;45.15;27.23;;;21.40;99.90;;;;;;4127531;28;20054;-63
2023/06/23 03:53:03;;;;;;;41.08;27.52;;;21.70;99.90;;;;;;4127193;28;20475;-61
2023/06/23 03:55:07;;;;;;;31.85;22.40;;;21.80;99.90;;;;;;4127730;28;20031;-62
2023/06/23 03:57:13;;;;;;;34.75;22.80;;;21.90;99.90;;;;;;4127767;28;20074;-63
2023/06/23 03:59:16;;;;;;;39.45;25.85;;;21.90;99.90;;;;;;4126779;28;20046;-63
2023/06/23 04:01:20;;;;;;;37.75;22.30;;;22.10;99.90;;;;;;4127551;28;20026;-63
2023/06/23 04:03:23;;;;;;;45.53;27.27;;;22.30;99.90;;;;;;4126681;28;20043;-63
2023/06/23 04:05:28;;;;;;;29.50;20.38;;;22.60;99.90;;;;;;4128319;28;20030;-62
2023/06/23 04:07:30;;;;;;;37.42;22.23;;;23.10;99.90;;;;;;4126012;28;20104;-61
2023/06/23 04:09:34;;;;;;;30.27;20.33;;;23.50;99.90;;;;;;4127971;28;20031;-61
2023/06/23 04:11:37;;;;;;;34.63;21.52;;;24.10;99.90;;;;;;4126087;28;20046;-62
2023/06/23 04:13:39;;;;;;;26.60;19.70;;;24.30;99.90;;;;;;4128050;28;20026;-64
2023/06/23 04:15:42;;;;;;;34.25;23.25;;;24.30;99.90;;;;;;4126676;28;20126;-64
2023/06/23 04:17:45;;;;;;;25.55;17.67;;;24.20;99.90;;;;;;4127976;28;20414;-62
2023/06/23 04:19:50;;;;;;;26.17;18.00;;;24.10;99.90;;;;;;4128916;28;20387;-63
2023/06/23 04:21:52;;;;;;;23.10;16.88;;;24.30;99.90;;;;;;4130873;28;20474;-65
2023/06/23 04:23:55;;;;;;;20.83;14.95;;;24.40;99.90;;;;;;4129850;28;20026;-62
2023/06/23 04:25:58;;;;;;;15.50;11.52;;;24.90;99.90;;;;;;4130902;28;20030;-63
2023/06/23 04:28:03;;;;;;;13.93;9.82;;;25.40;99.90;;;;;;4129445;28;21208;-64
2023/06/23 04:30:07;;;;;;;8.95;7.20;;;26.00;99.90;;;;;;4130468;28;20097;-66
2023/06/23 04:32:10;;;;;;;9.30;6.43;;;26.00;99.90;;;;;;4130059;28;20026;-63
2023/06/23 04:34:11;;;;;;;8.23;5.65;;;26.20;99.90;;;;;;4130190;28;20088;-64
2023/06/23 04:36:15;;;;;;;8.65;6.07;;;25.70;99.90;;;;;;4129561;28;20052;-62
2023/06/23 04:38:23;;;;;;;10.90;4.88;;;25.00;99.90;;;;;;4129892;28;20030;-62
2023/06/23 04:40:56;;;;;;;6.78;5.35;;;24.40;99.90;;;;;;4129130;28;20380;-62
2023/06/23 04:43:19;;;;;;;10.43;5.88;;;23.70;99.90;;;;;;4122264;28;20042;-63
2023/06/23 04:45:24;;;;;;;10.98;6.38;;;23.10;99.90;;;;;;4129182;28;20042;-63
2023/06/23 04:47:30;;;;;;;26.40;6.10;;;23.10;99.90;;;;;;4129517;28;20109;-62
2023/06/23 04:49:33;;;;;;;11.35;6.10;;;23.20;99.90;;;;;;4129275;28;20081;-62
2023/06/23 04:51:41;;;;;;;8.48;5.90;;;23.10;99.90;;;;;;4129447;28;20042;-66
2023/06/23 04:53:53;;;;;;;10.98;5.70;;;22.90;99.90;;;;;;4129324;28;20023;-67
2023/06/23 04:56:00;;;;;;;9.73;6.18;;;22.60;99.90;;;;;;4129409;28;20112;-61
2023/06/23 04:58:04;;;;;;;10.90;6.60;;;22.70;99.90;;;;;;4143403;28;20478;-61
2023/06/23 05:00:11;;;;;;;10.57;5.72;;;22.80;99.90;;;;;;4129944;28;20089;-63
2023/06/23 05:02:13;;;;;;;11.77;7.05;;;22.80;99.90;;;;;;4113388;28;20023;-63
2023/06/23 05:04:16;;;;;;;10.32;6.68;;;22.70;99.90;;;;;;4113644;28;20562;-61
2023/06/23 05:06:20;;;;;;;12.05;6.80;;;22.90;99.90;;;;;;4113912;28;20038;-62
2023/06/23 05:08:25;;;;;;;10.07;6.32;;;23.00;99.90;;;;;;4112248;28;20435;-62
2023/06/23 05:10:28;;;;;;;9.48;6.18;;;22.90;99.90;;;;;;4113608;28;20108;-62
2023/06/23 05:12:32;;;;;;;9.73;6.22;;;23.10;99.90;;;;;;4126072;28;20454;-62
2023/06/23 05:14:35;;;;;;;9.38;6.78;;;22.90;99.90;;;;;;4130209;28;20030;-63
2023/06/23 05:16:37;;;;;;;10.70;6.03;;;22.90;99.90;;;;;;4128919;28;20105;-61
2023/06/23 05:18:40;;;;;;;11.27;6.85;;;22.80;99.90;;;;;;4130008;28;20088;-70
2023/06/23 05:20:44;;;;;;;10.30;6.47;;;23.00;99.90;;;;;;4128575;28;20038;-68
2023/06/23 05:22:48;;;;;;;10.05;5.80;;;23.10;99.90;;;;;;4128885;28;20471;-69
2023/06/23 05:24:54;;;;;;;10.60;6.97;;;23.60;99.90;;;;;;4128982;28;20110;-69
2023/06/23 05:26:57;;;;;;;9.60;5.70;;;24.20;99.90;;;;;;4129044;28;20124;-70
2023/06/23 05:29:00;;;;;;;11.60;6.60;;;24.10;99.90;;;;;;4128093;28;20093;-64
2023/06/23 05:31:03;;;;;;;8.93;6.53;;;24.20;99.90;;;;;;4129653;28;20129;-62
2023/06/23 05:33:07;;;;;;;11.63;6.75;;;24.50;99.90;;;;;;4128218;28;20026;-63
2023/06/23 05:35:10;;;;;;;10.30;6.75;;;24.60;99.90;;;;;;4129312;28;20022;-64
2023/06/23 05:37:12;;;;;;;10.80;6.78;;;24.50;99.90;;;;;;4128416;28;20030;-63
2023/06/23 05:39:16;;;;;;;11.88;7.10;;;24.60;99.90;;;;;;4129535;28;20038;-66
2023/06/23 05:41:17;;;;;;;10.25;5.95;;;24.50;99.90;;;;;;4128042;28;20089;-65
2023/06/23 05:43:19;;;;;;;13.05;6.80;;;24.90;99.90;;;;;;4128264;28;20057;-62
2023/06/23 05:45:20;;;;;;;12.82;6.70;;;25.30;99.90;;;;;;4127211;28;20035;-62
2023/06/23 05:47:25;;;;;;;8.35;6.18;;;25.10;99.90;;;;;;4127964;28;20039;-63
2023/06/23 05:49:29;;;;;;;9.32;6.57;;;24.80;99.90;;;;;;4129294;28;20399;-63
2023/06/23 05:51:32;;;;;;;8.70;7.20;;;24.50;99.90;;;;;;4127838;28;20094;-62
2023/06/23 05:53:35;;;;;;;9.45;7.30;;;24.20;99.90;;;;;;4127757;28;20521;-62
2023/06/23 05:55:49;;;;;;;10.05;6.63;;;24.30;99.90;;;;;;4128277;28;20030;-62
2023/06/23 05:57:59;;;;;;;12.63;7.38;;;24.20;99.90;;;;;;4129439;28;20097;-68
2023/06/23 06:00:25;;;;;;;11.23;6.15;;;24.20;99.90;;;;;;4127673;28;20495;-65
2023/06/23 06:02:30;;;;;;;14.32;6.90;;;24.00;99.90;;;;;;4128250;28;20104;-62
2023/06/23 06:04:37;;;;;;;8.80;6.85;;;23.90;99.90;;;;;;4128347;28;20468;-62
2023/06/23 06:06:40;;;;;;;9.05;6.63;;;24.20;99.90;;;;;;4128789;28;20085;-63
2023/06/23 06:08:43;;;;;;;11.82;6.70;;;24.20;99.90;;;;;;4127014;28;20030;-63
2023/06/23 06:10:45;;;;;;;13.20;8.15;;;24.10;99.90;;;;;;4129676;28;20046;-66
2023/06/23 06:12:49;;;;;;;11.68;7.35;;;24.20;99.90;;;;;;4127247;28;20604;-62
2023/06/23 06:14:51;;;;;;;8.98;6.45;;;24.20;99.90;;;;;;4133580;28;20541;-63
2023/06/23 06:16:53;;;;;;;12.15;6.30;;;24.40;99.90;;;;;;4127169;28;20112;-63
2023/06/23 06:18:57;;;;;;;9.43;5.82;;;24.30;99.90;;;;;;4129091;28;20395;-67
2023/06/23 06:21:00;;;;;;;11.23;6.63;;;24.40;99.90;;;;;;4127622;28;20457;-65
2023/06/23 06:23:05;;;;;;;7.47;5.38;;;24.60;99.90;;;;;;4128023;28;20042;-62
2023/06/23 06:25:08;;;;;;;15.55;6.82;;;24.70;99.90;;;;;;4126714;28;20043;-62
2023/06/23 06:27:10;;;;;;;8.82;5.75;;;25.10;99.90;;;;;;4128731;28;20042;-66
2023/06/23 06:29:13;;;;;;;8.82;4.95;;;24.80;99.90;;;;;;4128031;28;20031;-62
2023/06/23 06:31:16;;;;;;;7.70;5.90;;;24.50;99.90;;;;;;4128593;28;20047;-64
2023/06/23 06:33:20;;;;;;;11.15;5.95;;;24.70;99.90;;;;;;4128029;28;20092;-62
2023/06/23 06:35:22;;;;;;;7.93;5.97;;;24.80;99.90;;;;;;4127553;28;20112;-64
2023/06/23 06:37:25;;;;;;;12.48;5.80;;;24.90;99.90;;;;;;4126284;28;20439;-66
2023/06/23 06:39:28;;;;;;;7.70;5.20;;;25.00;99.90;;;;;;4142807;28;20100;-69
2023/06/23 06:41:35;;;;;;;8.30;5.57;;;25.10;99.90;;;;;;4127084;28;20085;-65
2023/06/23 06:43:37;;;;;;;5.72;5.22;;;25.10;99.90;;;;;;4128039;28;20073;-63
2023/06/23 06:45:38;;;;;;;8.43;5.78;;;25.20;99.90;;;;;;4126357;28;20053;-65
2023/06/23 06:47:43;;;;;;;9.32;5.53;;;25.10;99.90;;;;;;4126807;28;20038;-69
2023/06/23 06:49:44;;;;;;;9.32;5.70;;;25.00;99.90;;;;;;4128304;28;20042;-67
2023/06/23 06:51:46;;;;;;;10.85;5.38;;;24.90;99.90;;;;;;4125574;28;20031;-63
2023/06/23 06:53:47;;;;;;;8.57;5.35;;;25.00;99.90;;;;;;4128564;28;20018;-63
2023/06/23 06:55:49;;;;;;;8.18;5.35;;;25.20;99.90;;;;;;4127655;28;20030;-63
2023/06/23 06:57:51;;;;;;;11.85;7.70;;;25.30;99.90;;;;;;4128795;28;20514;-69
2023/06/23 06:59:52;;;;;;;6.75;5.80;;;25.30;99.90;;;;;;4126760;28;20093;-63
2023/06/23 07:01:54;;;;;;;10.77;5.75;;;25.40;99.90;;;;;;4127754;28;21087;-61
2023/06/23 07:03:56;;;;;;;9.85;5.97;;;25.50;99.90;;;;;;4126920;28;20486;-65
2023/06/23 07:05:57;;;;;;;7.85;5.10;;;25.40;99.90;;;;;;4129215;28;20073;-64
2023/06/23 07:07:59;;;;;;;8.05;5.20;;;25.30;99.90;;;;;;4127207;28;20034;-62
2023/06/23 07:10:00;;;;;;;10.98;5.43;;;25.40;99.90;;;;;;4127560;28;20050;-65
2023/06/23 07:12:01;;;;;;;9.00;4.85;;;25.40;99.90;;;;;;4127435;28;20054;-61
2023/06/23 07:14:03;;;;;;;6.97;5.30;;;25.50;99.90;;;;;;4124609;28;20076;-62
2023/06/23 07:16:05;;;;;;;6.47;4.25;;;25.50;99.90;;;;;;4142527;28;20107;-62
2023/06/23 07:18:06;;;;;;;6.38;4.53;;;25.60;99.90;;;;;;4127065;28;20042;-63
2023/06/23 07:20:07;;;;;;;10.55;4.97;;;25.70;99.90;;;;;;4128372;28;20050;-62
2023/06/23 07:22:09;;;;;;;7.97;4.85;;;25.80;99.90;;;;;;4126584;28;20100;-62
2023/06/23 07:24:10;;;;;;;7.63;4.97;;;25.90;99.90;;;;;;4128167;28;20069;-62
2023/06/23 07:26:11;;;;;;;7.72;4.90;;;25.70;99.90;;;;;;4126531;28;20530;-63
2023/06/23 07:28:12;;;;;;;6.28;4.72;;;25.70;99.90;;;;;;4128203;28;20031;-63
2023/06/23 07:30:14;;;;;;;8.18;4.47;;;25.70;99.90;;;;;;4126343;28;20153;-62
2023/06/23 07:32:15;;;;;;;10.88;4.65;;;25.80;99.90;;;;;;4127798;28;20116;-66
2023/06/23 07:34:16;;;;;;;6.85;3.63;;;25.90;99.90;;;;;;4126925;28;20038;-62
2023/06/23 07:36:18;;;;;;;7.03;4.28;;;26.00;99.90;;;;;;4128794;28;20030;-63
2023/06/23 07:38:19;;;;;;;7.88;4.45;;;26.00;99.90;;;;;;4126934;28;20062;-62
2023/06/23 07:40:20;;;;;;;6.60;4.63;;;26.00;99.90;;;;;;4142658;28;20541;-62
2023/06/23 07:42:21;;;;;;;7.13;4.05;;;26.10;99.90;;;;;;4127426;28;20026;-62
2023/06/23 07:44:22;;;;;;;7.05;4.07;;;26.20;99.90;;;;;;4127573;28;20026;-62
2023/06/23 07:46:23;;;;;;;10.27;4.22;;;26.20;99.90;;;;;;4127614;28;20054;-62
2023/06/23 07:48:24;;;;;;;6.43;4.70;;;26.20;99.90;;;;;;4127243;28;20108;-62
2023/06/23 07:50:26;;;;;;;8.68;4.30;;;26.20;99.90;;;;;;4127970;28;20034;-61
2023/06/23 07:52:27;;;;;;;8.20;4.60;;;26.20;99.90;;;;;;4126912;28;20535;-62
2023/06/23 07:54:29;;;;;;;8.68;4.90;;;26.30;99.90;;;;;;4130038;28;20521;-61
2023/06/23 07:56:30;;;;;;;9.45;4.72;;;26.40;99.90;;;;;;4130049;28;20438;-62
2023/06/23 07:58:31;;;;;;;8.05;4.90;;;26.50;99.90;;;;;;4131234;28;20474;-64
2023/06/23 08:00:32;;;;;;;6.18;4.55;;;26.60;99.90;;;;;;4129991;28;20100;-61
2023/06/23 08:02:34;;;;;;;8.50;4.65;;;26.70;99.90;;;;;;4131123;28;20077;-63
2023/06/23 08:04:35;;;;;;;7.82;4.55;;;26.70;99.90;;;;;;4129039;28;20077;-63
2023/06/23 08:06:36;;;;;;;12.02;4.32;;;26.80;99.90;;;;;;4131477;28;20030;-63
2023/06/23 08:08:38;;;;;;;6.43;4.70;;;26.80;99.90;;;;;;4129804;28;20423;-63
2023/06/23 08:10:39;;;;;;;7.65;4.55;;;26.80;99.90;;;;;;4129692;28;20151;-61
2023/06/23 08:12:40;;;;;;;5.95;4.38;;;27.00;99.90;;;;;;4129634;28;20038;-64
2023/06/23 08:14:41;;;;;;;6.90;4.15;;;27.10;99.90;;;;;;4129978;28;20046;-62
2023/06/23 08:16:43;;;;;;;10.48;4.35;;;27.10;99.90;;;;;;4129750;28;20458;-64
2023/06/23 08:18:44;;;;;;;7.22;5.07;;;27.10;99.90;;;;;;4129755;28;20034;-60
2023/06/23 08:20:45;;;;;;;10.27;4.82;;;27.10;99.90;;;;;;4129895;28;20046;-65
2023/06/23 08:22:46;;;;;;;7.22;4.15;;;27.20;99.90;;;;;;4129502;28;20026;-62
2023/06/23 08:24:47;;;;;;;9.73;4.10;;;27.10;99.90;;;;;;4130816;28;20434;-62
2023/06/23 08:26:48;;;;;;;7.38;3.83;;;27.10;99.90;;;;;;4128946;28;20112;-63
2023/06/23 08:28:50;;;;;;;8.30;4.30;;;27.10;99.90;;;;;;4130549;28;20081;-62
2023/06/23 08:30:52;;;;;;;5.15;3.88;;;27.10;99.90;;;;;;4129471;28;20487;-65
2023/06/23 08:32:53;;;;;;;4.32;3.88;;;27.20;99.90;;;;;;4130526;28;20096;-64
2023/06/23 08:34:54;;;;;;;7.28;4.05;;;27.10;99.90;;;;;;4128973;28;20089;-66
2023/06/23 08:36:55;;;;;;;6.07;3.97;;;27.10;99.90;;;;;;4129494;28;20493;-65
2023/06/23 08:38:56;;;;;;;9.82;4.18;;;27.20;99.90;;;;;;4129046;28;20050;-66
2023/06/23 08:40:58;;;;;;;5.18;3.70;;;27.20;99.90;;;;;;4130051;28;20038;-67
2023/06/23 08:43:01;;;;;;;8.40;4.43;;;27.20;99.90;;;;;;4129805;28;20491;-66
2023/06/23 08:45:05;;;;;;;6.15;3.63;;;27.10;99.90;;;;;;4130112;28;20084;-63
2023/06/23 08:47:12;;;;;;;4.90;3.72;;;27.20;99.90;;;;;;4129951;28;20093;-62
2023/06/23 08:49:15;;;;;;;12.63;4.93;;;27.20;99.90;;;;;;4129199;28;20093;-64
2023/06/23 08:51:17;;;;;;;5.28;3.85;;;27.40;99.90;;;;;;4129548;28;20100;-62
2023/06/23 08:53:20;;;;;;;8.68;3.90;;;27.60;99.90;;;;;;4128131;28;20030;-63
2023/06/23 08:55:21;;;;;;;8.65;4.13;;;27.50;99.90;;;;;;4129557;28;20088;-62
2023/06/23 08:57:23;;;;;;;9.07;3.72;;;27.40;99.90;;;;;;4128590;28;20039;-64
2023/06/23 08:59:25;;;;;;;7.20;4.47;;;27.40;99.90;;;;;;4129070;28;20042;-62
2023/06/23 09:01:27;;;;;;;9.43;3.85;;;27.50;99.90;;;;;;4128429;28;20466;-61
2023/06/23 09:03:28;;;;;;;8.48;4.20;;;27.50;99.90;;;;;;4130229;28;20096;-62
2023/06/23 09:05:29;;;;;;;6.82;3.83;;;27.60;99.90;;;;;;4128180;28;20093;-61
2023/06/23 09:07:30;;;;;;;12.50;3.95;;;27.50;99.90;;;;;;4129789;28;20038;-62
2023/06/23 09:09:31;;;;;;;10.82;5.07;;;27.60;99.90;;;;;;4128227;28;20046;-61
2023/06/23 09:11:33;;;;;;;10.05;4.07;;;27.40;99.90;;;;;;4129079;28;20046;-63
2023/06/23 09:13:35;;;;;;;8.15;3.95;;;27.40;99.90;;;;;;4129233;28;20030;-64
2023/06/23 09:15:38;;;;;;;8.02;4.60;;;27.60;99.90;;;;;;4130154;28;20030;-62
2023/06/23 09:17:40;;;;;;;7.22;3.90;;;27.60;99.90;;;;;;4129408;28;20030;-62
2023/06/23 09:19:42;;;;;;;9.20;4.20;;;27.60;99.90;;;;;;4129653;28;20336;-61
2023/06/23 09:21:43;;;;;;;7.70;3.67;;;27.50;99.90;;;;;;4129361;28;20092;-61
2023/06/23 09:24:06;;;;;;;6.20;3.80;;;27.50;99.90;;;;;;4129088;28;20108;-63
2023/06/23 09:26:07;;;;;;;8.35;3.97;;;27.70;99.90;;;;;;4129107;28;20030;-66
2023/06/23 09:28:23;;;;;;;6.72;4.38;;;27.70;99.90;;;;;;4129241;28;20383;-63
2023/06/23 09:30:35;;;;;;;7.57;4.00;;;27.80;99.90;;;;;;4127712;28;20034;-64
2023/06/23 09:32:36;;;;;;;11.50;4.35;;;27.80;99.90;;;;;;4129042;28;20043;-66
2023/06/23 09:34:38;;;;;;;9.38;4.30;;;27.90;99.90;;;;;;4128661;28;20133;-62
2023/06/23 09:36:39;;;;;;;8.90;4.00;;;28.00;99.90;;;;;;4128145;28;20061;-66
2023/06/23 09:38:41;;;;;;;5.75;3.80;;;28.00;99.90;;;;;;4129043;28;20035;-64
2023/06/23 09:40:42;;;;;;;8.05;4.68;;;28.00;99.90;;;;;;4126588;28;20096;-63
2023/06/23 09:42:44;;;;;;;8.38;4.05;;;28.00;99.90;;;;;;4135117;28;20141;-63
2023/06/23 09:44:46;;;;;;;7.07;4.18;;;28.00;99.90;;;;;;4128590;28;20093;-63
2023/06/23 09:46:59;;;;;;;10.43;4.32;;;28.20;99.90;;;;;;4128182;28;20043;-63
2023/06/23 09:49:01;;;;;;;7.57;3.67;;;28.40;99.90;;;;;;4127486;28;20050;-61
2023/06/23 09:51:04;;;;;;;7.32;3.70;;;28.30;99.90;;;;;;4129074;28;20105;-62
2023/06/23 09:53:05;;;;;;;8.90;3.85;;;28.30;99.90;;;;;;4127989;28;20104;-62
2023/06/23 09:55:07;;;;;;;4.45;3.95;;;28.30;99.90;;;;;;4129089;28;20088;-61
2023/06/23 09:57:12;;;;;;;5.60;3.92;;;28.30;99.90;;;;;;4127904;28;20092;-65
2023/06/23 09:59:15;;;;;;;6.82;4.05;;;28.20;99.90;;;;;;4129457;28;20026;-63
2023/06/23 10:01:18;;;;;;;5.57;4.30;;;28.20;99.90;;;;;;4128148;28;20306;-65
2023/06/23 10:03:20;;;;;;;8.75;4.07;;;28.30;99.90;;;;;;4129077;28;20096;-65
2023/06/23 10:05:22;;;;;;;9.00;4.30;;;28.30;99.90;;;;;;4128502;28;20057;-63
2023/06/23 10:07:25;;;;;;;11.30;4.30;;;28.40;99.90;;;;;;4143415;28;20046;-66
2023/06/23 10:09:26;;;;;;;8.82;3.90;;;28.50;99.90;;;;;;4127126;28;20466;-63
2023/06/23 10:11:36;;;;;;;11.75;4.30;;;28.60;99.90;;;;;;4127750;28;20124;-62
2023/06/23 10:13:37;;;;;;;7.82;4.38;;;28.60;99.90;;;;;;4128140;28;20046;-64
2023/06/23 10:15:41;;;;;;;8.90;4.03;;;28.50;99.90;;;;;;4127795;28;20108;-64
2023/06/23 10:17:43;;;;;;;9.50;4.20;;;28.50;99.90;;;;;;4128341;28;20154;-63
2023/06/23 10:19:49;;;;;;;7.80;4.35;;;28.70;99.90;;;;;;4128095;28;20030;-65
2023/06/23 10:21:51;;;;;;;8.07;4.07;;;28.70;99.90;;;;;;4128519;28;20449;-64
2023/06/23 10:23:59;;;;;;;8.88;3.88;;;28.70;99.90;;;;;;4127967;28;20030;-63
2023/06/23 10:26:01;;;;;;;6.95;3.60;;;28.80;99.90;;;;;;4128638;28;20088;-63
2023/06/23 10:28:07;;;;;;;8.57;3.97;;;28.80;99.90;;;;;;4127331;28;20035;-64
2023/06/23 10:30:11;;;;;;;9.73;3.97;;;28.70;99.90;;;;;;4128977;28;20030;-62
2023/06/23 10:32:16;;;;;;;5.05;3.40;;;28.70;99.90;;;;;;4127730;28;20034;-64
2023/06/23 10:34:19;;;;;;;6.22;3.88;;;28.70;99.90;;;;;;4128978;28;20097;-65
2023/06/23 10:36:22;;;;;;;8.63;3.65;;;28.80;99.90;;;;;;4127788;28;20073;-65
2023/06/23 10:38:26;;;;;;;8.65;3.75;;;28.80;99.90;;;;;;4128813;28;20042;-62
2023/06/23 10:40:27;;;;;;;6.05;4.00;;;28.80;99.90;;;;;;4127737;28;20057;-65